Time;durP1;ratioP1;P1;durP2;ratioP2;P2;SDS_P1;SDS_P2;PMS_P1;PMS_P2;Temp;Humidity;BMP_temperature;BMP_pressure;BME280_temperature;BME280_humidity;BME280_pressure;Samples;Min_cycle;Max_cycle;Signal;HPM_P1;HPM_P2
2023/02/06 00:01:22;;;;;;;;;0.00;0.00;;;;;;;;5051853;28;8784;-66
2023/02/06 00:03:48;;;;;;;;;1.00;0.00;;;;;;;;5051758;28;8869;-66
2023/02/06 00:06:13;;;;;;;;;0.00;0.00;;;;;;;;5051257;28;8819;-67
2023/02/06 00:08:38;;;;;;;;;0.00;0.00;;;;;;;;5051577;28;8780;-66
2023/02/06 00:11:06;;;;;;;;;0.00;0.00;;;;;;;;5051683;28;8822;-66
2023/02/06 00:13:31;;;;;;;;;0.00;0.00;;;;;;;;5033563;28;8807;-66
2023/02/06 00:15:56;;;;;;;;;0.00;0.00;;;;;;;;5051375;28;11507;-66
2023/02/06 00:18:22;;;;;;;;;0.00;0.00;;;;;;;;5051038;28;8941;-66
2023/02/06 00:20:47;;;;;;;;;1.00;0.00;;;;;;;;5051320;28;8780;-66
2023/02/06 00:23:13;;;;;;;;;0.00;0.00;;;;;;;;5051585;28;8792;-66
2023/02/06 00:25:38;;;;;;;;;1.00;0.00;;;;;;;;5033306;28;8824;-66
2023/02/06 00:28:04;;;;;;;;;0.00;0.00;;;;;;;;5033247;28;8977;-66
2023/02/06 00:30:29;;;;;;;;;0.00;0.00;;;;;;;;5033291;28;8811;-67
2023/02/06 00:32:54;;;;;;;;;0.00;0.00;;;;;;;;5033202;28;8800;-66
2023/02/06 00:35:19;;;;;;;;;0.00;0.00;;;;;;;;5050698;28;8807;-66
2023/02/06 00:37:45;;;;;;;;;1.00;0.00;;;;;;;;5050769;28;8869;-66
2023/02/06 00:40:10;;;;;;;;;0.00;0.00;;;;;;;;5051248;28;8780;-66
2023/02/06 00:42:35;;;;;;;;;0.00;0.00;;;;;;;;5051051;28;8884;-66
2023/02/06 00:45:01;;;;;;;;;6.00;0.67;;;;;;;;5050896;28;8940;-66
2023/02/06 00:47:26;;;;;;;;;1.67;0.00;;;;;;;;5050913;28;8764;-65
2023/02/06 00:49:52;;;;;;;;;0.00;0.00;;;;;;;;5050772;28;8811;-66
2023/02/06 00:52:17;;;;;;;;;0.00;0.00;;;;;;;;5051063;28;8795;-66
2023/02/06 00:54:42;;;;;;;;;0.00;0.00;;;;;;;;5050362;28;8784;-68
2023/02/06 00:57:07;;;;;;;;;0.00;0.00;;;;;;;;5050394;28;8796;-67
2023/02/06 00:59:33;;;;;;;;;0.33;0.00;;;;;;;;5050997;28;8846;-66
2023/02/06 01:01:58;;;;;;;;;1.33;0.00;;;;;;;;5050648;28;8787;-65
2023/02/06 01:04:23;;;;;;;;;0.00;0.00;;;;;;;;5050219;28;8804;-66
2023/02/06 01:06:48;;;;;;;;;0.00;0.00;;;;;;;;5050480;28;8873;-65
2023/02/06 01:09:13;;;;;;;;;0.00;0.00;;;;;;;;5050498;28;8803;-65
2023/02/06 01:11:39;;;;;;;;;0.00;0.00;;;;;;;;5050151;28;8807;-66
2023/02/06 01:14:04;;;;;;;;;0.33;0.33;;;;;;;;5050018;28;8843;-65
2023/02/06 01:16:29;;;;;;;;;0.00;0.00;;;;;;;;5050256;28;9554;-66
2023/02/06 01:18:54;;;;;;;;;0.00;0.00;;;;;;;;5032321;28;8811;-65
2023/02/06 01:21:23;;;;;;;;;0.33;0.00;;;;;;;;5050135;28;8875;-67
2023/02/06 01:23:49;;;;;;;;;0.67;0.00;;;;;;;;5032348;28;8944;-65
2023/02/06 01:26:15;;;;;;;;;0.00;0.00;;;;;;;;5049865;28;11422;-65
2023/02/06 01:28:42;;;;;;;;;0.00;0.00;;;;;;;;5049704;28;8796;-67
2023/02/06 01:31:08;;;;;;;;;0.00;0.00;;;;;;;;5049830;28;8776;-66
2023/02/06 01:33:34;;;;;;;;;1.00;0.00;;;;;;;;5050171;28;8783;-66
2023/02/06 01:35:59;;;;;;;;;1.00;0.00;;;;;;;;5050275;28;8807;-66
2023/02/06 01:38:24;;;;;;;;;0.00;0.00;;;;;;;;5050657;28;8800;-67
2023/02/06 01:40:54;;;;;;;;;0.00;0.00;;;;;;;;5050248;28;8795;-66
2023/02/06 01:43:20;;;;;;;;;1.00;0.00;;;;;;;;5050171;28;8868;-68
2023/02/06 01:45:45;;;;;;;;;0.00;0.00;;;;;;;;5049928;28;8831;-67
2023/02/06 01:48:13;;;;;;;;;1.00;0.00;;;;;;;;5049813;28;8768;-69
2023/02/06 01:50:39;;;;;;;;;0.00;0.00;;;;;;;;5049978;28;8768;-68
2023/02/06 01:53:05;;;;;;;;;0.00;0.00;;;;;;;;5050217;28;8926;-67
2023/02/06 01:55:31;;;;;;;;;0.00;0.00;;;;;;;;5049912;28;8890;-69
2023/02/06 01:57:57;;;;;;;;;0.00;0.00;;;;;;;;5049687;28;8830;-66
2023/02/06 02:00:23;;;;;;;;;0.00;0.00;;;;;;;;5049722;28;8791;-67
2023/02/06 02:02:48;;;;;;;;;0.00;0.00;;;;;;;;5049772;28;8772;-67
2023/02/06 02:05:15;;;;;;;;;1.00;0.00;;;;;;;;5049660;28;9579;-67
2023/02/06 02:07:43;;;;;;;;;0.00;0.00;;;;;;;;5049623;28;8865;-66
2023/02/06 02:10:09;;;;;;;;;1.67;0.00;;;;;;;;5049470;28;8783;-66
2023/02/06 02:12:34;;;;;;;;;1.00;1.00;;;;;;;;5049588;28;8783;-67
2023/02/06 02:15:00;;;;;;;;;0.00;0.00;;;;;;;;5049059;28;8853;-66
2023/02/06 02:17:28;;;;;;;;;0.00;0.00;;;;;;;;5049504;28;8800;-67
2023/02/06 02:20:06;;;;;;;;;0.00;0.00;;;;;;;;5064591;28;8884;-67
2023/02/06 02:22:49;;;;;;;;;0.00;0.00;;;;;;;;5049702;28;8795;-66
2023/02/06 02:25:25;;;;;;;;;1.00;0.00;;;;;;;;5049141;28;8888;-66
2023/02/06 02:27:50;;;;;;;;;0.00;0.00;;;;;;;;5047811;28;8935;-67
2023/02/06 02:30:19;;;;;;;;;0.33;0.33;;;;;;;;5047845;28;8923;-67
2023/02/06 02:32:55;;;;;;;;;0.00;0.00;;;;;;;;5048304;28;8799;-65
2023/02/06 02:35:27;;;;;;;;;6.00;1.00;;;;;;;;5048398;28;8811;-66
2023/02/06 02:37:58;;;;;;;;;0.00;0.00;;;;;;;;5055546;28;8815;-66
2023/02/06 02:40:32;;;;;;;;;0.00;0.00;;;;;;;;5047190;28;8804;-67
2023/02/06 02:43:07;;;;;;;;;0.00;0.00;;;;;;;;5046759;28;8873;-67
2023/02/06 02:45:45;;;;;;;;;0.33;0.33;;;;;;;;5046805;28;9546;-67
2023/02/06 02:48:16;;;;;;;;;0.00;0.00;;;;;;;;5046861;28;8796;-66
2023/02/06 02:50:42;;;;;;;;;0.67;0.67;;;;;;;;5046728;28;8800;-66
2023/02/06 02:53:07;;;;;;;;;0.00;0.00;;;;;;;;5047097;28;8794;-66
2023/02/06 02:55:33;;;;;;;;;1.00;1.00;;;;;;;;5046928;28;8815;-69
2023/02/06 02:58:09;;;;;;;;;1.00;0.00;;;;;;;;5030716;28;8808;-67
2023/02/06 03:00:37;;;;;;;;;0.00;0.00;;;;;;;;5049040;28;9542;-68
2023/02/06 03:03:05;;;;;;;;;0.00;0.00;;;;;;;;5049003;28;8802;-67
2023/02/06 03:05:31;;;;;;;;;0.00;0.00;;;;;;;;5030379;28;8882;-66
2023/02/06 03:08:00;;;;;;;;;0.67;0.67;;;;;;;;5055446;28;8818;-67
2023/02/06 03:10:43;;;;;;;;;0.00;0.00;;;;;;;;5068882;28;9570;-67
2023/02/06 03:13:29;;;;;;;;;0.00;0.00;;;;;;;;5068851;28;9528;-66
2023/02/06 03:16:08;;;;;;;;;1.00;0.00;;;;;;;;5060983;28;8813;-67
2023/02/06 03:18:39;;;;;;;;;0.00;0.00;;;;;;;;5069115;28;8804;-67
2023/02/06 03:21:06;;;;;;;;;1.00;0.00;;;;;;;;5068791;28;8790;-67
2023/02/06 03:23:37;;;;;;;;;1.00;1.00;;;;;;;;5068798;28;8820;-66
2023/02/06 03:26:04;;;;;;;;;0.00;0.00;;;;;;;;5066762;28;9013;-67
2023/02/06 03:28:35;;;;;;;;;2.33;0.00;;;;;;;;5034526;28;8862;-67
2023/02/06 03:31:02;;;;;;;;;0.00;0.00;;;;;;;;5034837;28;8807;-67
2023/02/06 03:33:32;;;;;;;;;0.33;0.33;;;;;;;;5034890;28;8807;-68
2023/02/06 03:35:57;;;;;;;;;0.00;0.00;;;;;;;;5052785;28;8806;-67
2023/02/06 03:38:23;;;;;;;;;1.67;0.00;;;;;;;;5034462;28;8779;-67
2023/02/06 03:40:50;;;;;;;;;0.00;0.00;;;;;;;;5052284;28;8865;-67
2023/02/06 03:43:17;;;;;;;;;3.00;0.00;;;;;;;;5034430;28;8955;-67
2023/02/06 03:45:46;;;;;;;;;0.00;0.00;;;;;;;;5033818;28;8823;-68
2023/02/06 03:48:16;;;;;;;;;0.00;0.00;;;;;;;;5052252;28;8882;-67
2023/02/06 03:50:42;;;;;;;;;0.00;0.00;;;;;;;;5052471;28;9554;-68
2023/02/06 03:53:10;;;;;;;;;0.00;0.00;;;;;;;;5052064;28;8775;-67
2023/02/06 03:55:37;;;;;;;;;1.00;1.00;;;;;;;;5052040;28;8792;-67
2023/02/06 03:58:07;;;;;;;;;0.00;0.00;;;;;;;;5034096;28;8958;-67
2023/02/06 04:00:32;;;;;;;;;0.00;0.00;;;;;;;;5052043;28;8788;-66
2023/02/06 04:02:58;;;;;;;;;0.00;0.00;;;;;;;;5052064;28;8784;-66
2023/02/06 04:05:24;;;;;;;;;0.00;0.00;;;;;;;;5051080;28;9546;-66
2023/02/06 04:07:51;;;;;;;;;0.00;0.00;;;;;;;;5051737;28;8860;-67
2023/02/06 04:10:16;;;;;;;;;0.00;0.00;;;;;;;;5033805;28;8941;-67
2023/02/06 04:12:42;;;;;;;;;0.00;0.00;;;;;;;;5051427;28;8787;-67
2023/02/06 04:15:07;;;;;;;;;0.00;0.00;;;;;;;;5033901;28;9012;-66
2023/02/06 04:17:33;;;;;;;;;0.00;0.00;;;;;;;;5051687;28;8796;-66
2023/02/06 04:19:58;;;;;;;;;0.00;0.00;;;;;;;;5051738;28;8857;-67
2023/02/06 04:22:23;;;;;;;;;0.00;0.00;;;;;;;;5051616;28;8824;-67
2023/02/06 04:24:49;;;;;;;;;0.33;0.33;;;;;;;;5051181;28;8897;-67
2023/02/06 04:27:14;;;;;;;;;0.00;0.00;;;;;;;;5051706;28;8792;-67
2023/02/06 04:29:40;;;;;;;;;0.00;0.00;;;;;;;;5051546;28;8779;-66
2023/02/06 04:32:05;;;;;;;;;0.33;0.33;;;;;;;;5033465;28;8984;-66
2023/02/06 04:34:34;;;;;;;;;0.00;0.00;;;;;;;;5051185;28;9514;-66
2023/02/06 04:37:00;;;;;;;;;0.67;0.67;;;;;;;;5032751;28;8788;-67
2023/02/06 04:39:26;;;;;;;;;1.00;0.00;;;;;;;;5051551;28;8791;-68
2023/02/06 04:41:51;;;;;;;;;0.00;0.00;;;;;;;;5050876;28;8784;-66
2023/02/06 04:44:17;;;;;;;;;0.00;0.00;;;;;;;;5051150;28;8792;-67
2023/02/06 04:46:42;;;;;;;;;1.00;0.00;;;;;;;;5050959;28;8822;-66
2023/02/06 04:49:08;;;;;;;;;0.00;0.00;;;;;;;;5050950;28;8783;-67
2023/02/06 04:51:34;;;;;;;;;1.00;0.00;;;;;;;;5050728;28;8968;-67
2023/02/06 04:54:00;;;;;;;;;0.00;0.00;;;;;;;;5051127;28;8820;-67
2023/02/06 04:56:25;;;;;;;;;1.00;0.00;;;;;;;;5050529;28;8807;-66
2023/02/06 04:58:51;;;;;;;;;0.00;0.00;;;;;;;;5050714;28;8806;-67
2023/02/06 05:01:16;;;;;;;;;0.00;0.00;;;;;;;;5051046;28;8791;-67
2023/02/06 05:03:42;;;;;;;;;3.67;0.00;;;;;;;;5051170;28;8898;-66
2023/02/06 05:06:07;;;;;;;;;1.00;1.00;;;;;;;;5050422;28;8946;-67
2023/02/06 05:08:32;;;;;;;;;0.00;0.00;;;;;;;;5050977;28;9504;-67
2023/02/06 05:10:57;;;;;;;;;0.67;0.67;;;;;;;;5050795;28;8804;-67
2023/02/06 05:13:23;;;;;;;;;4.67;0.00;;;;;;;;5053167;28;8878;-66
2023/02/06 05:15:48;;;;;;;;;0.33;0.33;;;;;;;;5050388;28;8854;-67
2023/02/06 05:18:14;;;;;;;;;1.67;0.00;;;;;;;;5032284;28;8816;-66
2023/02/06 05:20:40;;;;;;;;;1.00;1.00;;;;;;;;5050602;28;9645;-66
2023/02/06 05:23:05;;;;;;;;;0.00;0.00;;;;;;;;5050568;28;8829;-67
2023/02/06 05:25:30;;;;;;;;;0.00;0.00;;;;;;;;5050328;28;8961;-67
2023/02/06 05:27:56;;;;;;;;;2.33;1.00;;;;;;;;5050426;28;9510;-68
2023/02/06 05:30:22;;;;;;;;;0.00;0.00;;;;;;;;5050435;28;8823;-67
2023/02/06 05:32:50;;;;;;;;;0.00;0.00;;;;;;;;5050523;28;8800;-67
2023/02/06 05:35:16;;;;;;;;;0.00;0.00;;;;;;;;5049808;28;8812;-67
2023/02/06 05:37:41;;;;;;;;;1.00;1.00;;;;;;;;5050154;28;8822;-67
2023/02/06 05:40:06;;;;;;;;;0.00;0.00;;;;;;;;5050844;28;8780;-67
2023/02/06 05:42:32;;;;;;;;;0.00;0.00;;;;;;;;5050287;28;8808;-67
2023/02/06 05:44:57;;;;;;;;;0.00;0.00;;;;;;;;5049897;28;8811;-67
2023/02/06 05:47:23;;;;;;;;;0.00;0.00;;;;;;;;5049999;28;8803;-66
2023/02/06 05:49:48;;;;;;;;;0.00;0.00;;;;;;;;5049200;28;8819;-67
2023/02/06 05:52:14;;;;;;;;;0.00;0.00;;;;;;;;5050168;28;8886;-67
2023/02/06 05:54:39;;;;;;;;;0.00;0.00;;;;;;;;5049421;28;8834;-67
2023/02/06 05:57:05;;;;;;;;;0.00;0.00;;;;;;;;5049729;28;8808;-66
2023/02/06 05:59:30;;;;;;;;;0.00;0.00;;;;;;;;5049677;28;8779;-66
2023/02/06 06:01:56;;;;;;;;;1.00;1.00;;;;;;;;5049737;28;8780;-66
2023/02/06 06:04:21;;;;;;;;;1.00;0.00;;;;;;;;5053127;28;8826;-69
2023/02/06 06:06:46;;;;;;;;;0.00;0.00;;;;;;;;5049145;28;8874;-66
2023/02/06 06:09:12;;;;;;;;;0.67;0.67;;;;;;;;5032279;28;8811;-66
2023/02/06 06:11:37;;;;;;;;;0.00;0.00;;;;;;;;5049708;28;9553;-66
2023/02/06 06:14:02;;;;;;;;;0.00;0.00;;;;;;;;5049068;28;8877;-65
2023/02/06 06:16:28;;;;;;;;;1.00;0.00;;;;;;;;5049377;28;8964;-65
2023/02/06 06:18:54;;;;;;;;;0.00;0.00;;;;;;;;5049531;28;8803;-68
2023/02/06 06:21:20;;;;;;;;;0.00;0.00;;;;;;;;5049314;28;9683;-65
2023/02/06 06:23:45;;;;;;;;;0.67;0.00;;;;;;;;5049544;28;8918;-69
2023/02/06 06:26:10;;;;;;;;;1.00;0.00;;;;;;;;5049153;28;8834;-65
2023/02/06 06:28:37;;;;;;;;;0.00;0.00;;;;;;;;5049118;28;8885;-66
2023/02/06 06:31:04;;;;;;;;;0.00;0.00;;;;;;;;5031252;28;8812;-65
2023/02/06 06:33:29;;;;;;;;;0.00;0.00;;;;;;;;5049236;28;8768;-65
2023/02/06 06:35:54;;;;;;;;;0.00;0.00;;;;;;;;5049300;28;8916;-66
2023/02/06 06:38:20;;;;;;;;;0.33;0.00;;;;;;;;5048983;28;8803;-65
2023/02/06 06:40:45;;;;;;;;;0.00;0.00;;;;;;;;5049538;28;8815;-64
2023/02/06 06:43:10;;;;;;;;;0.00;0.00;;;;;;;;5048933;28;8802;-65
2023/02/06 06:45:35;;;;;;;;;1.00;0.00;;;;;;;;5048879;28;8930;-64
2023/02/06 06:48:01;;;;;;;;;0.00;0.00;;;;;;;;5048985;28;8772;-66
2023/02/06 06:50:26;;;;;;;;;0.33;0.00;;;;;;;;5049004;28;9503;-66
2023/02/06 06:52:51;;;;;;;;;2.33;0.00;;;;;;;;5030679;28;8792;-64
2023/02/06 06:55:18;;;;;;;;;3.00;0.00;;;;;;;;5055643;28;8794;-65
2023/02/06 06:57:43;;;;;;;;;0.00;0.00;;;;;;;;5067578;28;9683;-64
2023/02/06 07:00:09;;;;;;;;;0.00;0.00;;;;;;;;5068693;28;8766;-64
2023/02/06 07:02:34;;;;;;;;;0.00;0.00;;;;;;;;5068829;28;8793;-67
2023/02/06 07:04:59;;;;;;;;;0.00;0.00;;;;;;;;5066002;28;9605;-65
2023/02/06 07:07:25;;;;;;;;;0.00;0.00;;;;;;;;5048640;28;8824;-65
2023/02/06 07:09:50;;;;;;;;;1.00;0.00;;;;;;;;5048372;28;8796;-65
2023/02/06 07:12:15;;;;;;;;;0.00;0.00;;;;;;;;5048901;28;8768;-64
2023/02/06 07:14:41;;;;;;;;;0.00;0.00;;;;;;;;5053514;28;8969;-65
2023/02/06 07:17:06;;;;;;;;;0.00;0.00;;;;;;;;5068764;28;8782;-64
2023/02/06 07:19:31;;;;;;;;;1.00;0.00;;;;;;;;5068648;28;8797;-64
2023/02/06 07:21:56;;;;;;;;;0.00;0.00;;;;;;;;5059859;28;9517;-64
2023/02/06 07:24:22;;;;;;;;;0.00;0.00;;;;;;;;5062880;28;8782;-64
2023/02/06 07:26:47;;;;;;;;;0.00;0.00;;;;;;;;5060594;28;8832;-63
2023/02/06 07:29:12;;;;;;;;;0.00;0.00;;;;;;;;5048475;28;8887;-65
2023/02/06 07:31:37;;;;;;;;;0.00;0.00;;;;;;;;5048839;28;8815;-66
2023/02/06 07:34:03;;;;;;;;;0.00;0.00;;;;;;;;5048762;28;8784;-64
2023/02/06 07:36:28;;;;;;;;;0.00;0.00;;;;;;;;5033333;28;8827;-63
2023/02/06 07:38:53;;;;;;;;;0.00;0.00;;;;;;;;5048754;28;8807;-64
2023/02/06 07:41:18;;;;;;;;;0.00;0.00;;;;;;;;5048620;28;9325;-63
2023/02/06 07:43:44;;;;;;;;;1.33;1.00;;;;;;;;5048032;28;8796;-64
2023/02/06 07:46:09;;;;;;;;;0.00;0.00;;;;;;;;5048383;28;8846;-64
2023/02/06 07:48:34;;;;;;;;;1.00;0.00;;;;;;;;5048324;28;8843;-65
2023/02/06 07:51:04;;;;;;;;;0.00;0.00;;;;;;;;5030467;28;9522;-64
2023/02/06 07:53:29;;;;;;;;;1.50;1.00;;;;;;;;5048560;28;8776;-64
2023/02/06 07:55:54;;;;;;;;;0.00;0.00;;;;;;;;5048485;28;11441;-64
2023/02/06 07:58:20;;;;;;;;;0.00;0.00;;;;;;;;5048455;28;8857;-64
2023/02/06 08:00:45;;;;;;;;;0.00;0.00;;;;;;;;5047998;28;8922;-64
2023/02/06 08:03:10;;;;;;;;;0.75;0.75;;;;;;;;5048448;28;9462;-64
2023/02/06 08:05:37;;;;;;;;;0.00;0.00;;;;;;;;5048282;28;8803;-65
2023/02/06 08:08:02;;;;;;;;;0.50;0.50;;;;;;;;5058841;28;8788;-65
2023/02/06 08:10:28;;;;;;;;;1.50;1.00;;;;;;;;5056690;28;10778;-65
2023/02/06 08:12:53;;;;;;;;;0.00;0.00;;;;;;;;5059769;28;8920;-68
2023/02/06 08:15:18;;;;;;;;;2.00;1.00;;;;;;;;5061490;28;8828;-64
2023/02/06 08:17:44;;;;;;;;;0.00;0.00;;;;;;;;5065494;28;8880;-64
2023/02/06 08:20:09;;;;;;;;;0.25;0.00;;;;;;;;5067828;28;8794;-65
2023/02/06 08:22:35;;;;;;;;;1.00;0.00;;;;;;;;5031979;28;9619;-65
2023/02/06 08:25:00;;;;;;;;;1.75;1.00;;;;;;;;5014053;28;8810;-65
2023/02/06 08:27:26;;;;;;;;;0.00;0.00;;;;;;;;5044922;28;8954;-64
2023/02/06 08:29:51;;;;;;;;;2.00;0.75;;;;;;;;5051820;28;8803;-65
2023/02/06 08:32:16;;;;;;;;;0.00;0.00;;;;;;;;5051786;28;12176;-67
2023/02/06 08:34:41;;;;;;;;;0.00;0.00;;;;;;;;5051538;28;8772;-65
2023/02/06 08:37:07;;;;;;;;;1.25;1.00;;;;;;;;5052966;28;8784;-64
2023/02/06 08:39:32;;;;;;;;;0.00;0.00;;;;;;;;5050047;28;8826;-65
2023/02/06 08:41:57;;;;;;;;;5.00;1.00;;;;;;;;5050088;28;8892;-64
2023/02/06 08:44:22;;;;;;;;;2.00;1.00;;;;;;;;5049914;28;8912;-65
2023/02/06 08:46:48;;;;;;;;;1.00;0.00;;;;;;;;5049886;28;8808;-67
2023/02/06 08:49:14;;;;;;;;;1.00;0.75;;;;;;;;5050053;28;9553;-64
2023/02/06 08:51:40;;;;;;;;;1.00;1.00;;;;;;;;5050008;28;8910;-65
2023/02/06 08:54:06;;;;;;;;;0.00;0.00;;;;;;;;5049787;28;11564;-66
2023/02/06 08:56:33;;;;;;;;;2.00;1.00;;;;;;;;5049521;28;8946;-65
2023/02/06 08:58:58;;;;;;;;;0.00;0.00;;;;;;;;5049142;28;11384;-65
2023/02/06 09:01:24;;;;;;;;;1.00;0.00;;;;;;;;5049497;28;11493;-64
2023/02/06 09:03:53;;;;;;;;;1.00;0.50;;;;;;;;5032324;28;8812;-65
2023/02/06 09:06:18;;;;;;;;;0.25;0.25;;;;;;;;5048985;28;8909;-65
2023/02/06 09:08:43;;;;;;;;;0.00;0.00;;;;;;;;5052788;28;11382;-65
2023/02/06 09:11:14;;;;;;;;;0.50;0.50;;;;;;;;5059583;28;9023;-66
2023/02/06 09:13:40;;;;;;;;;0.50;0.50;;;;;;;;5070294;28;8793;-70
2023/02/06 09:16:06;;;;;;;;;0.00;0.00;;;;;;;;5030085;28;12240;-66
2023/02/06 09:18:31;;;;;;;;;2.00;0.00;;;;;;;;5050522;28;8810;-65
2023/02/06 09:21:06;;;;;;;;;0.00;0.00;;;;;;;;5059525;28;8823;-65
2023/02/06 09:23:31;;;;;;;;;0.25;0.25;;;;;;;;5058831;28;8828;-65
2023/02/06 09:25:56;;;;;;;;;1.25;1.25;;;;;;;;5060392;28;11558;-65
2023/02/06 09:28:22;;;;;;;;;0.00;0.00;;;;;;;;5060964;28;8790;-65
2023/02/06 09:30:48;;;;;;;;;2.00;0.00;;;;;;;;5062871;28;8797;-67
2023/02/06 09:33:13;;;;;;;;;1.00;1.00;;;;;;;;5070059;28;8888;-65
2023/02/06 09:35:38;;;;;;;;;0.00;0.00;;;;;;;;5069967;28;11507;-65
2023/02/06 09:38:03;;;;;;;;;1.00;1.00;;;;;;;;5054766;28;8839;-66
2023/02/06 09:40:31;;;;;;;;;1.00;1.00;;;;;;;;5061793;28;8794;-66
2023/02/06 09:42:56;;;;;;;;;1.00;1.00;;;;;;;;5069969;28;8902;-68
2023/02/06 09:45:24;;;;;;;;;2.00;2.00;;;;;;;;5081506;28;11418;-66
2023/02/06 09:47:55;;;;;;;;;2.00;1.00;;;;;;;;5030258;28;8836;-65
2023/02/06 09:50:29;;;;;;;;;2.00;0.00;;;;;;;;5029647;28;11409;-65
2023/02/06 09:52:57;;;;;;;;;1.33;0.00;;;;;;;;5029962;28;11378;-66
2023/02/06 09:55:55;;;;;;;;;2.00;1.00;;;;;;;;5029958;28;11447;-65
2023/02/06 09:58:35;;;;;;;;;2.00;0.00;;;;;;;;4954782;28;11628;-65
2023/02/06 10:01:01;;;;;;;;;1.33;0.33;;;;;;;;4957473;28;11527;-64
2023/02/06 10:03:38;;;;;;;;;1.00;0.00;;;;;;;;4963149;28;12172;-65
2023/02/06 10:06:03;;;;;;;;;1.00;1.00;;;;;;;;4954227;28;8812;-67
2023/02/06 10:08:40;;;;;;;;;6.33;4.33;;;;;;;;4954251;28;11462;-66
2023/02/06 10:11:25;;;;;;;;;0.00;0.00;;;;;;;;4959094;28;9959;-67
2023/02/06 10:13:56;;;;;;;;;0.33;0.33;;;;;;;;4948925;28;11506;-65
2023/02/06 10:16:37;;;;;;;;;1.00;0.00;;;;;;;;4968535;28;11574;-66
2023/02/06 10:19:12;;;;;;;;;1.00;1.00;;;;;;;;4968574;28;11436;-65
2023/02/06 10:21:41;;;;;;;;;2.00;1.00;;;;;;;;4968665;28;11469;-65
2023/02/06 10:24:09;;;;;;;;;1.00;1.00;;;;;;;;4968825;28;11574;-66
2023/02/06 10:26:36;;;;;;;;;6.33;2.67;;;;;;;;4946489;28;11559;-65
2023/02/06 10:29:02;;;;;;;;;5.67;4.00;;;;;;;;4948403;28;8883;-65
2023/02/06 10:31:43;;;;;;;;;1.00;1.00;;;;;;;;4949014;28;11455;-66
2023/02/06 10:34:09;;;;;;;;;2.00;0.00;;;;;;;;5007809;28;8804;-65
2023/02/06 10:36:52;;;;;;;;;1.00;1.00;;;;;;;;5048818;28;11478;-66
2023/02/06 10:39:40;;;;;;;;;3.33;0.00;;;;;;;;5049910;28;8796;-66
2023/02/06 10:42:11;;;;;;;;;0.33;0.33;;;;;;;;5049167;28;11402;-66
2023/02/06 10:44:43;;;;;;;;;0.67;0.67;;;;;;;;5049041;28;11382;-66
2023/02/06 10:47:28;;;;;;;;;0.25;0.25;;;;;;;;5049007;28;11385;-65
2023/02/06 10:49:59;;;;;;;;;2.00;1.00;;;;;;;;5048234;28;11402;-66
2023/02/06 10:52:27;;;;;;;;;1.00;1.00;;;;;;;;5049366;28;11510;-66
2023/02/06 10:54:54;;;;;;;;;0.00;0.00;;;;;;;;5049025;28;11403;-66
2023/02/06 10:57:23;;;;;;;;;1.25;1.25;;;;;;;;5048865;28;11381;-66
2023/02/06 10:59:50;;;;;;;;;0.50;0.50;;;;;;;;5048897;28;11395;-65
2023/02/06 11:02:19;;;;;;;;;3.50;1.00;;;;;;;;5049146;28;12252;-66
2023/02/06 11:04:48;;;;;;;;;2.00;1.00;;;;;;;;5048636;28;11348;-65
2023/02/06 11:07:23;;;;;;;;;0.75;0.50;;;;;;;;5048871;28;11396;-65
2023/02/06 11:09:49;;;;;;;;;2.00;1.00;;;;;;;;5048882;28;11641;-66
2023/02/06 11:12:33;;;;;;;;;1.50;1.25;;;;;;;;5030759;28;11448;-66
2023/02/06 11:15:01;;;;;;;;;1.00;1.00;;;;;;;;5048702;28;8790;-66
2023/02/06 11:17:27;;;;;;;;;2.50;2.00;;;;;;;;5048878;28;11356;-66
2023/02/06 11:19:54;;;;;;;;;6.00;4.00;;;;;;;;5049104;28;11321;-65
2023/02/06 11:22:27;;;;;;;;;2.50;2.00;;;;;;;;5048317;28;11357;-66
2023/02/06 11:25:06;;;;;;;;;2.75;1.75;;;;;;;;5048845;28;10600;-66
2023/02/06 11:27:33;;;;;;;;;3.00;2.00;;;;;;;;5048795;28;10228;-66
2023/02/06 11:30:02;;;;;;;;;5.00;3.00;;;;;;;;5030770;28;9889;-66
2023/02/06 11:32:33;;;;;;;;;2.00;1.75;;;;;;;;5048958;28;9880;-67
2023/02/06 11:35:00;;;;;;;;;4.50;2.75;;;;;;;;5048672;28;10324;-65
2023/02/06 11:37:36;;;;;;;;;1.75;1.00;;;;;;;;5049022;28;9640;-65
2023/02/06 11:40:16;;;;;;;;;2.25;1.25;;;;;;;;5048923;28;9611;-66
2023/02/06 11:42:42;;;;;;;;;1.75;1.75;;;;;;;;5050177;28;9715;-66
2023/02/06 11:45:27;;;;;;;;;2.00;2.00;;;;;;;;5049666;28;10099;-66
2023/02/06 11:47:53;;;;;;;;;1.00;1.00;;;;;;;;5031696;28;8818;-67
2023/02/06 11:50:23;;;;;;;;;1.25;1.25;;;;;;;;5052538;28;10975;-65
2023/02/06 11:52:51;;;;;;;;;2.00;2.00;;;;;;;;5052547;28;8763;-65
2023/02/06 11:55:29;;;;;;;;;1.75;1.00;;;;;;;;5052451;28;11496;-66
2023/02/06 11:58:01;;;;;;;;;1.50;1.00;;;;;;;;5052056;28;11403;-65
2023/02/06 12:00:26;;;;;;;;;3.00;1.00;;;;;;;;5051965;28;11515;-66
2023/02/06 12:02:53;;;;;;;;;2.00;2.00;;;;;;;;5052197;28;12168;-65
2023/02/06 12:05:19;;;;;;;;;1.00;1.00;;;;;;;;5052275;28;8795;-66
2023/02/06 12:08:03;;;;;;;;;1.00;1.00;;;;;;;;5033985;28;11399;-66
2023/02/06 12:10:31;;;;;;;;;3.25;1.00;;;;;;;;5051954;28;11378;-66
2023/02/06 12:13:01;;;;;;;;;3.25;2.00;;;;;;;;5051925;28;11392;-66
2023/02/06 12:15:31;;;;;;;;;5.25;5.00;;;;;;;;5051068;28;11422;-66
2023/02/06 12:18:03;;;;;;;;;4.50;1.00;;;;;;;;5052040;28;11390;-66
2023/02/06 12:20:30;;;;;;;;;4.00;1.00;;;;;;;;5052019;28;11346;-66
2023/02/06 12:22:57;;;;;;;;;2.00;2.00;;;;;;;;5052182;28;11535;-66
2023/02/06 12:25:31;;;;;;;;;4.25;2.00;;;;;;;;5051905;28;11370;-66
2023/02/06 12:28:04;;;;;;;;;3.50;1.75;;;;;;;;5051529;28;11534;-65
2023/02/06 12:30:42;;;;;;;;;4.00;1.00;;;;;;;;5033609;28;11381;-65
2023/02/06 12:33:16;;;;;;;;;2.00;1.00;;;;;;;;5033622;28;11402;-66
2023/02/06 12:35:44;;;;;;;;;2.00;1.25;;;;;;;;5033046;28;11421;-65
2023/02/06 12:38:17;;;;;;;;;1.75;1.00;;;;;;;;5051504;28;11373;-65
2023/02/06 12:41:09;;;;;;;;;1.25;1.00;;;;;;;;5051913;28;11380;-66
2023/02/06 12:43:36;;;;;;;;;1.00;1.00;;;;;;;;5046791;28;11378;-66
2023/02/06 12:46:07;;;;;;;;;1.00;1.00;;;;;;;;5051337;28;11376;-66
2023/02/06 12:48:35;;;;;;;;;0.00;0.00;;;;;;;;5051390;28;11389;-66
2023/02/06 12:51:04;;;;;;;;;0.75;0.75;;;;;;;;5051195;28;11509;-66
2023/02/06 12:53:41;;;;;;;;;1.00;1.00;;;;;;;;5051041;28;11378;-66
2023/02/06 12:56:09;;;;;;;;;1.00;1.00;;;;;;;;5050994;28;11431;-66
2023/02/06 12:58:37;;;;;;;;;2.50;1.00;;;;;;;;5050603;28;11513;-66
2023/02/06 13:01:13;;;;;;;;;1.00;0.00;;;;;;;;5051014;28;11500;-66
2023/02/06 13:03:44;;;;;;;;;1.00;1.00;;;;;;;;5050992;28;11399;-65
2023/02/06 13:06:24;;;;;;;;;1.00;1.00;;;;;;;;5050973;28;12205;-65
2023/02/06 13:08:57;;;;;;;;;0.50;0.50;;;;;;;;5051056;28;12058;-65
2023/02/06 13:11:27;;;;;;;;;1.00;0.00;;;;;;;;5033079;28;11534;-65
2023/02/06 13:14:13;;;;;;;;;2.00;1.00;;;;;;;;5050861;28;12554;-65
2023/02/06 13:16:41;;;;;;;;;1.50;1.00;;;;;;;;5050018;28;11426;-65
2023/02/06 13:19:18;;;;;;;;;0.25;0.25;;;;;;;;5050924;28;11379;-66
2023/02/06 13:21:49;;;;;;;;;3.25;0.75;;;;;;;;5051043;28;11388;-65
2023/02/06 13:24:15;;;;;;;;;0.25;0.25;;;;;;;;5032701;28;11389;-65
2023/02/06 13:26:55;;;;;;;;;1.00;1.00;;;;;;;;5050438;28;11372;-65
2023/02/06 13:29:21;;;;;;;;;1.75;1.00;;;;;;;;5050477;28;11394;-65
2023/02/06 13:31:47;;;;;;;;;1.00;1.00;;;;;;;;5050723;28;11377;-66
2023/02/06 13:34:14;;;;;;;;;2.00;2.00;;;;;;;;5050506;28;11490;-66
2023/02/06 13:36:48;;;;;;;;;1.00;1.00;;;;;;;;5050508;28;8815;-66
2023/02/06 13:39:21;;;;;;;;;1.00;1.00;;;;;;;;5051054;28;11451;-66
2023/02/06 13:41:46;;;;;;;;;0.00;0.00;;;;;;;;5032627;28;11428;-65
2023/02/06 13:44:31;;;;;;;;;0.25;0.25;;;;;;;;5049926;28;12463;-65
2023/02/06 13:46:59;;;;;;;;;0.00;0.00;;;;;;;;5050253;28;8811;-66
2023/02/06 13:49:36;;;;;;;;;1.00;1.00;;;;;;;;5050511;28;11373;-66
2023/02/06 13:52:10;;;;;;;;;1.00;0.00;;;;;;;;5050179;28;11394;-65
2023/02/06 13:54:43;;;;;;;;;1.00;1.00;;;;;;;;5050057;28;12076;-65
2023/02/06 13:57:09;;;;;;;;;5.25;0.75;;;;;;;;5050262;28;11494;-66
2023/02/06 13:59:45;;;;;;;;;1.00;0.00;;;;;;;;5049955;28;11362;-66
2023/02/06 14:02:43;;;;;;;;;0.25;0.25;;;;;;;;5031727;28;8931;-65
2023/02/06 14:05:11;;;;;;;;;0.00;0.00;;;;;;;;4949506;28;11744;-65
2023/02/06 14:07:49;;;;;;;;;0.00;0.00;;;;;;;;4949453;28;11717;-65
2023/02/06 14:13:07;;;;;;;;;0.00;0.00;;;;;;;;4949640;28;11639;-66
2023/02/06 14:15:42;;;;;;;;;0.00;0.00;;;;;;;;4949113;28;11592;-65
2023/02/06 14:18:16;;;;;;;;;2.00;1.50;;;;;;;;4949163;28;11530;-67
2023/02/06 14:20:53;;;;;;;;;0.25;0.25;;;;;;;;4949158;28;11532;-66
2023/02/06 14:23:19;;;;;;;;;1.00;1.00;;;;;;;;4932928;28;11535;-66
2023/02/06 14:25:55;;;;;;;;;1.00;1.00;;;;;;;;4949126;28;11532;-65
2023/02/06 14:28:39;;;;;;;;;0.25;0.25;;;;;;;;4949287;28;8903;-65
2023/02/06 14:31:04;;;;;;;;;1.50;1.00;;;;;;;;4949241;28;11514;-66
2023/02/06 14:33:38;;;;;;;;;0.75;0.75;;;;;;;;4949024;28;11609;-65
2023/02/06 14:36:22;;;;;;;;;3.00;1.25;;;;;;;;4949019;28;8844;-66
2023/02/06 14:39:07;;;;;;;;;2.00;1.00;;;;;;;;4949122;28;11533;-66
2023/02/06 14:41:38;;;;;;;;;0.25;0.25;;;;;;;;5031818;28;11462;-67
2023/02/06 14:44:07;;;;;;;;;2.00;0.50;;;;;;;;5049156;28;11566;-65
2023/02/06 14:46:32;;;;;;;;;0.75;0.75;;;;;;;;5049551;28;11373;-66
2023/02/06 14:48:58;;;;;;;;;0.00;0.00;;;;;;;;5049282;28;11380;-66
2023/02/06 14:51:23;;;;;;;;;0.75;0.00;;;;;;;;5049362;28;8775;-66
2023/02/06 14:53:53;;;;;;;;;2.00;1.00;;;;;;;;5049045;28;11366;-66
2023/02/06 14:56:30;;;;;;;;;0.75;0.75;;;;;;;;5049182;28;8804;-65
2023/02/06 14:58:55;;;;;;;;;1.00;1.00;;;;;;;;5048970;28;11367;-66
2023/02/06 15:01:22;;;;;;;;;1.00;1.00;;;;;;;;5048653;28;12205;-65
2023/02/06 15:03:51;;;;;;;;;1.00;0.00;;;;;;;;5049170;28;8784;-65